sensor_id;sensor_type;location;lat;lon;timestamp;P1;durP1;ratioP1;P2;durP2;ratioP2
45466;SDS011;31212;49.734;8.490;2022-07-22T00:02:19;7.35;;;4.38;;
45466;SDS011;31212;49.734;8.490;2022-07-22T00:04:46;7.03;;;4.57;;
45466;SDS011;31212;49.734;8.490;2022-07-22T00:07:13;6.88;;;4.10;;
45466;SDS011;31212;49.734;8.490;2022-07-22T00:09:40;9.57;;;4.90;;
45466;SDS011;31212;49.734;8.490;2022-07-22T00:12:07;9.60;;;5.25;;
45466;SDS011;31212;49.734;8.490;2022-07-22T00:14:35;7.90;;;4.28;;
45466;SDS011;31212;49.734;8.490;2022-07-22T00:17:01;6.10;;;4.28;;
45466;SDS011;31212;49.734;8.490;2022-07-22T00:19:28;6.38;;;4.60;;
45466;SDS011;31212;49.734;8.490;2022-07-22T00:21:54;6.07;;;3.83;;
45466;SDS011;31212;49.734;8.490;2022-07-22T00:24:21;5.63;;;4.15;;
45466;SDS011;31212;49.734;8.490;2022-07-22T00:26:47;8.43;;;5.07;;
45466;SDS011;31212;49.734;8.490;2022-07-22T00:29:14;9.15;;;5.85;;
45466;SDS011;31212;49.734;8.490;2022-07-22T00:31:42;7.18;;;4.70;;
45466;SDS011;31212;49.734;8.490;2022-07-22T00:34:09;8.25;;;4.95;;
45466;SDS011;31212;49.734;8.490;2022-07-22T00:36:35;8.90;;;4.75;;
45466;SDS011;31212;49.734;8.490;2022-07-22T00:39:02;7.65;;;5.07;;
45466;SDS011;31212;49.734;8.490;2022-07-22T00:41:29;6.88;;;4.68;;
45466;SDS011;31212;49.734;8.490;2022-07-22T00:43:57;9.10;;;4.63;;
45466;SDS011;31212;49.734;8.490;2022-07-22T00:46:25;9.43;;;4.90;;
45466;SDS011;31212;49.734;8.490;2022-07-22T00:48:54;7.78;;;3.90;;
45466;SDS011;31212;49.734;8.490;2022-07-22T00:51:22;8.77;;;5.70;;
45466;SDS011;31212;49.734;8.490;2022-07-22T00:53:50;9.80;;;4.80;;
45466;SDS011;31212;49.734;8.490;2022-07-22T00:56:17;8.10;;;5.65;;
45466;SDS011;31212;49.734;8.490;2022-07-22T00:58:46;8.82;;;5.78;;
45466;SDS011;31212;49.734;8.490;2022-07-22T01:01:13;9.63;;;4.90;;
45466;SDS011;31212;49.734;8.490;2022-07-22T01:03:40;9.05;;;5.03;;
45466;SDS011;31212;49.734;8.490;2022-07-22T01:06:08;11.55;;;4.30;;
45466;SDS011;31212;49.734;8.490;2022-07-22T01:08:35;7.38;;;4.60;;
45466;SDS011;31212;49.734;8.490;2022-07-22T01:11:07;6.72;;;5.18;;
45466;SDS011;31212;49.734;8.490;2022-07-22T01:13:35;7.85;;;5.28;;
45466;SDS011;31212;49.734;8.490;2022-07-22T01:16:03;10.52;;;6.00;;
45466;SDS011;31212;49.734;8.490;2022-07-22T01:18:30;7.50;;;5.15;;
45466;SDS011;31212;49.734;8.490;2022-07-22T01:20:58;8.65;;;5.53;;
45466;SDS011;31212;49.734;8.490;2022-07-22T01:23:25;8.27;;;5.13;;
45466;SDS011;31212;49.734;8.490;2022-07-22T01:25:51;9.10;;;5.80;;
45466;SDS011;31212;49.734;8.490;2022-07-22T01:28:18;11.15;;;6.07;;
45466;SDS011;31212;49.734;8.490;2022-07-22T01:30:45;9.50;;;5.60;;
45466;SDS011;31212;49.734;8.490;2022-07-22T01:33:12;8.05;;;5.32;;
45466;SDS011;31212;49.734;8.490;2022-07-22T01:35:38;9.02;;;5.13;;
45466;SDS011;31212;49.734;8.490;2022-07-22T01:38:07;12.00;;;5.10;;
45466;SDS011;31212;49.734;8.490;2022-07-22T01:40:34;8.15;;;4.78;;
45466;SDS011;31212;49.734;8.490;2022-07-22T01:43:01;5.97;;;4.28;;
45466;SDS011;31212;49.734;8.490;2022-07-22T01:45:29;7.97;;;5.10;;
45466;SDS011;31212;49.734;8.490;2022-07-22T01:47:55;8.57;;;5.00;;
45466;SDS011;31212;49.734;8.490;2022-07-22T01:50:23;7.07;;;4.95;;
45466;SDS011;31212;49.734;8.490;2022-07-22T01:52:50;8.73;;;4.43;;
45466;SDS011;31212;49.734;8.490;2022-07-22T01:55:19;8.57;;;4.97;;
45466;SDS011;31212;49.734;8.490;2022-07-22T01:57:46;8.25;;;4.65;;
45466;SDS011;31212;49.734;8.490;2022-07-22T02:00:24;9.05;;;4.88;;
45466;SDS011;31212;49.734;8.490;2022-07-22T02:02:51;5.72;;;4.30;;
45466;SDS011;31212;49.734;8.490;2022-07-22T02:05:17;7.78;;;4.93;;
45466;SDS011;31212;49.734;8.490;2022-07-22T02:07:45;7.97;;;4.55;;
45466;SDS011;31212;49.734;8.490;2022-07-22T02:10:11;7.15;;;4.65;;
45466;SDS011;31212;49.734;8.490;2022-07-22T02:12:40;8.63;;;4.97;;
45466;SDS011;31212;49.734;8.490;2022-07-22T02:15:07;9.60;;;5.47;;
45466;SDS011;31212;49.734;8.490;2022-07-22T02:17:35;7.72;;;5.07;;
45466;SDS011;31212;49.734;8.490;2022-07-22T02:20:03;8.60;;;5.65;;
45466;SDS011;31212;49.734;8.490;2022-07-22T02:22:30;11.43;;;6.13;;
45466;SDS011;31212;49.734;8.490;2022-07-22T02:24:57;8.77;;;5.43;;
45466;SDS011;31212;49.734;8.490;2022-07-22T02:27:23;10.77;;;5.55;;
45466;SDS011;31212;49.734;8.490;2022-07-22T02:29:51;10.38;;;6.53;;
45466;SDS011;31212;49.734;8.490;2022-07-22T02:32:18;10.38;;;5.72;;
45466;SDS011;31212;49.734;8.490;2022-07-22T02:34:45;10.80;;;5.75;;
45466;SDS011;31212;49.734;8.490;2022-07-22T02:37:12;9.18;;;6.10;;
45466;SDS011;31212;49.734;8.490;2022-07-22T02:39:38;7.70;;;5.85;;
45466;SDS011;31212;49.734;8.490;2022-07-22T02:42:05;10.20;;;6.20;;
45466;SDS011;31212;49.734;8.490;2022-07-22T02:44:32;9.15;;;5.35;;
45466;SDS011;31212;49.734;8.490;2022-07-22T02:47:00;8.02;;;5.45;;
45466;SDS011;31212;49.734;8.490;2022-07-22T02:51:58;10.60;;;7.15;;
45466;SDS011;31212;49.734;8.490;2022-07-22T02:54:25;11.52;;;6.07;;
45466;SDS011;31212;49.734;8.490;2022-07-22T02:56:52;11.65;;;5.75;;
45466;SDS011;31212;49.734;8.490;2022-07-22T02:59:18;11.38;;;6.55;;
45466;SDS011;31212;49.734;8.490;2022-07-22T03:01:45;10.10;;;6.78;;
45466;SDS011;31212;49.734;8.490;2022-07-22T03:04:13;10.85;;;6.45;;
45466;SDS011;31212;49.734;8.490;2022-07-22T03:06:40;12.80;;;6.75;;
45466;SDS011;31212;49.734;8.490;2022-07-22T03:09:11;11.52;;;6.90;;
45466;SDS011;31212;49.734;8.490;2022-07-22T03:11:42;10.23;;;7.32;;
45466;SDS011;31212;49.734;8.490;2022-07-22T03:14:10;10.43;;;6.10;;
45466;SDS011;31212;49.734;8.490;2022-07-22T03:16:37;10.82;;;6.30;;
45466;SDS011;31212;49.734;8.490;2022-07-22T03:19:04;7.85;;;5.68;;
45466;SDS011;31212;49.734;8.490;2022-07-22T03:21:32;9.23;;;5.18;;
45466;SDS011;31212;49.734;8.490;2022-07-22T03:23:59;12.40;;;6.95;;
45466;SDS011;31212;49.734;8.490;2022-07-22T03:26:26;9.98;;;7.72;;
45466;SDS011;31212;49.734;8.490;2022-07-22T03:28:53;11.90;;;6.78;;
45466;SDS011;31212;49.734;8.490;2022-07-22T03:31:20;12.05;;;7.22;;
45466;SDS011;31212;49.734;8.490;2022-07-22T03:33:46;10.25;;;6.13;;
45466;SDS011;31212;49.734;8.490;2022-07-22T03:36:14;11.65;;;6.82;;
45466;SDS011;31212;49.734;8.490;2022-07-22T03:38:44;13.98;;;6.38;;
45466;SDS011;31212;49.734;8.490;2022-07-22T03:41:11;13.07;;;7.40;;
45466;SDS011;31212;49.734;8.490;2022-07-22T03:43:39;11.15;;;5.93;;
45466;SDS011;31212;49.734;8.490;2022-07-22T03:46:06;12.23;;;5.80;;
45466;SDS011;31212;49.734;8.490;2022-07-22T03:48:33;11.50;;;6.30;;
45466;SDS011;31212;49.734;8.490;2022-07-22T03:50:59;14.65;;;7.85;;
45466;SDS011;31212;49.734;8.490;2022-07-22T03:53:27;11.43;;;7.28;;
45466;SDS011;31212;49.734;8.490;2022-07-22T03:55:56;15.57;;;8.10;;
45466;SDS011;31212;49.734;8.490;2022-07-22T03:58:23;15.63;;;7.35;;
45466;SDS011;31212;49.734;8.490;2022-07-22T04:00:52;17.00;;;7.95;;
45466;SDS011;31212;49.734;8.490;2022-07-22T04:03:18;12.35;;;6.72;;
45466;SDS011;31212;49.734;8.490;2022-07-22T04:06:03;11.90;;;6.75;;
45466;SDS011;31212;49.734;8.490;2022-07-22T04:08:48;13.65;;;6.63;;
45466;SDS011;31212;49.734;8.490;2022-07-22T04:11:17;10.65;;;6.85;;
45466;SDS011;31212;49.734;8.490;2022-07-22T04:13:44;12.43;;;7.85;;
45466;SDS011;31212;49.734;8.490;2022-07-22T04:16:10;12.40;;;7.45;;
45466;SDS011;31212;49.734;8.490;2022-07-22T04:18:46;11.95;;;7.07;;
45466;SDS011;31212;49.734;8.490;2022-07-22T04:21:14;10.10;;;6.53;;
45466;SDS011;31212;49.734;8.490;2022-07-22T04:23:53;14.85;;;7.18;;
45466;SDS011;31212;49.734;8.490;2022-07-22T04:26:27;11.88;;;7.47;;
45466;SDS011;31212;49.734;8.490;2022-07-22T04:28:53;9.05;;;6.38;;
45466;SDS011;31212;49.734;8.490;2022-07-22T04:31:20;14.80;;;7.15;;
45466;SDS011;31212;49.734;8.490;2022-07-22T04:33:53;14.50;;;8.23;;
45466;SDS011;31212;49.734;8.490;2022-07-22T04:36:20;11.52;;;6.57;;
45466;SDS011;31212;49.734;8.490;2022-07-22T04:38:47;16.02;;;8.43;;
45466;SDS011;31212;49.734;8.490;2022-07-22T04:41:13;16.20;;;8.43;;
45466;SDS011;31212;49.734;8.490;2022-07-22T04:43:41;12.13;;;7.47;;
45466;SDS011;31212;49.734;8.490;2022-07-22T04:46:08;15.52;;;7.78;;
45466;SDS011;31212;49.734;8.490;2022-07-22T04:48:39;14.95;;;8.18;;
45466;SDS011;31212;49.734;8.490;2022-07-22T04:51:06;11.40;;;7.47;;
45466;SDS011;31212;49.734;8.490;2022-07-22T04:53:34;14.68;;;8.27;;
45466;SDS011;31212;49.734;8.490;2022-07-22T04:56:00;12.95;;;7.57;;
45466;SDS011;31212;49.734;8.490;2022-07-22T04:58:27;14.23;;;8.70;;
45466;SDS011;31212;49.734;8.490;2022-07-22T05:00:56;14.27;;;9.02;;
45466;SDS011;31212;49.734;8.490;2022-07-22T05:03:23;13.13;;;6.90;;
45466;SDS011;31212;49.734;8.490;2022-07-22T05:05:52;9.60;;;7.13;;
45466;SDS011;31212;49.734;8.490;2022-07-22T05:08:26;11.57;;;6.72;;
45466;SDS011;31212;49.734;8.490;2022-07-22T05:10:53;12.23;;;7.75;;
45466;SDS011;31212;49.734;8.490;2022-07-22T05:13:20;12.57;;;6.68;;
45466;SDS011;31212;49.734;8.490;2022-07-22T05:15:47;11.05;;;6.68;;
45466;SDS011;31212;49.734;8.490;2022-07-22T05:18:15;9.15;;;6.15;;
45466;SDS011;31212;49.734;8.490;2022-07-22T05:20:41;9.82;;;6.47;;
45466;SDS011;31212;49.734;8.490;2022-07-22T05:23:08;10.77;;;5.85;;
45466;SDS011;31212;49.734;8.490;2022-07-22T05:25:38;10.20;;;6.25;;
45466;SDS011;31212;49.734;8.490;2022-07-22T05:28:04;11.65;;;6.90;;
45466;SDS011;31212;49.734;8.490;2022-07-22T05:30:34;11.20;;;6.28;;
45466;SDS011;31212;49.734;8.490;2022-07-22T05:33:02;8.07;;;5.65;;
45466;SDS011;31212;49.734;8.490;2022-07-22T05:35:53;8.95;;;6.38;;
45466;SDS011;31212;49.734;8.490;2022-07-22T05:38:20;10.93;;;5.93;;
45466;SDS011;31212;49.734;8.490;2022-07-22T05:40:47;9.57;;;6.25;;
45466;SDS011;31212;49.734;8.490;2022-07-22T05:43:14;7.32;;;5.90;;
45466;SDS011;31212;49.734;8.490;2022-07-22T05:45:40;14.60;;;6.63;;
45466;SDS011;31212;49.734;8.490;2022-07-22T05:48:07;9.70;;;5.95;;
45466;SDS011;31212;49.734;8.490;2022-07-22T05:50:34;12.27;;;6.75;;
45466;SDS011;31212;49.734;8.490;2022-07-22T05:53:03;9.30;;;6.95;;
45466;SDS011;31212;49.734;8.490;2022-07-22T05:55:30;8.93;;;5.72;;
45466;SDS011;31212;49.734;8.490;2022-07-22T05:57:56;12.48;;;6.78;;
45466;SDS011;31212;49.734;8.490;2022-07-22T06:00:24;9.10;;;5.78;;
45466;SDS011;31212;49.734;8.490;2022-07-22T06:02:50;13.75;;;6.20;;
45466;SDS011;31212;49.734;8.490;2022-07-22T06:05:19;9.20;;;6.05;;
45466;SDS011;31212;49.734;8.490;2022-07-22T06:07:46;9.88;;;5.63;;
45466;SDS011;31212;49.734;8.490;2022-07-22T06:10:25;9.00;;;5.47;;
45466;SDS011;31212;49.734;8.490;2022-07-22T06:12:52;8.25;;;5.60;;
45466;SDS011;31212;49.734;8.490;2022-07-22T06:15:21;10.10;;;6.60;;
45466;SDS011;31212;49.734;8.490;2022-07-22T06:17:50;9.57;;;5.53;;
45466;SDS011;31212;49.734;8.490;2022-07-22T06:20:18;12.98;;;6.57;;
45466;SDS011;31212;49.734;8.490;2022-07-22T06:22:46;10.32;;;6.22;;
45466;SDS011;31212;49.734;8.490;2022-07-22T06:25:13;7.75;;;5.10;;
45466;SDS011;31212;49.734;8.490;2022-07-22T06:27:41;11.68;;;6.28;;
45466;SDS011;31212;49.734;8.490;2022-07-22T06:30:08;10.25;;;4.80;;
45466;SDS011;31212;49.734;8.490;2022-07-22T06:32:35;8.60;;;5.25;;
45466;SDS011;31212;49.734;8.490;2022-07-22T06:35:02;10.80;;;4.95;;
45466;SDS011;31212;49.734;8.490;2022-07-22T06:37:29;11.10;;;5.10;;
45466;SDS011;31212;49.734;8.490;2022-07-22T06:39:56;7.97;;;4.90;;
45466;SDS011;31212;49.734;8.490;2022-07-22T06:42:32;10.13;;;5.55;;
45466;SDS011;31212;49.734;8.490;2022-07-22T06:45:18;8.52;;;4.82;;
45466;SDS011;31212;49.734;8.490;2022-07-22T06:47:54;8.60;;;5.47;;
45466;SDS011;31212;49.734;8.490;2022-07-22T06:50:22;10.27;;;5.22;;
45466;SDS011;31212;49.734;8.490;2022-07-22T06:52:51;7.30;;;3.80;;
45466;SDS011;31212;49.734;8.490;2022-07-22T06:55:18;6.93;;;4.50;;
45466;SDS011;31212;49.734;8.490;2022-07-22T06:57:55;7.45;;;4.55;;
45466;SDS011;31212;49.734;8.490;2022-07-22T07:00:23;11.38;;;5.13;;
45466;SDS011;31212;49.734;8.490;2022-07-22T07:03:09;6.55;;;4.22;;
45466;SDS011;31212;49.734;8.490;2022-07-22T07:05:37;9.70;;;4.55;;
45466;SDS011;31212;49.734;8.490;2022-07-22T07:08:04;6.55;;;4.20;;
45466;SDS011;31212;49.734;8.490;2022-07-22T07:10:31;9.10;;;4.57;;
45466;SDS011;31212;49.734;8.490;2022-07-22T07:13:06;8.80;;;4.50;;
45466;SDS011;31212;49.734;8.490;2022-07-22T07:15:52;5.60;;;3.67;;
45466;SDS011;31212;49.734;8.490;2022-07-22T07:18:19;5.68;;;3.40;;
45466;SDS011;31212;49.734;8.490;2022-07-22T07:20:45;4.65;;;3.30;;
45466;SDS011;31212;49.734;8.490;2022-07-22T07:23:12;7.70;;;4.00;;
45466;SDS011;31212;49.734;8.490;2022-07-22T07:25:43;5.23;;;3.73;;
45466;SDS011;31212;49.734;8.490;2022-07-22T07:28:10;5.75;;;3.55;;
45466;SDS011;31212;49.734;8.490;2022-07-22T07:30:57;5.22;;;3.42;;
45466;SDS011;31212;49.734;8.490;2022-07-22T07:33:24;5.90;;;3.00;;
45466;SDS011;31212;49.734;8.490;2022-07-22T07:35:52;2.90;;;2.60;;
45466;SDS011;31212;49.734;8.490;2022-07-22T07:38:29;6.43;;;3.40;;
45466;SDS011;31212;49.734;8.490;2022-07-22T07:40:56;4.05;;;3.03;;
45466;SDS011;31212;49.734;8.490;2022-07-22T07:43:23;4.28;;;3.15;;
45466;SDS011;31212;49.734;8.490;2022-07-22T07:45:50;4.70;;;3.17;;
45466;SDS011;31212;49.734;8.490;2022-07-22T07:48:21;4.60;;;2.75;;
45466;SDS011;31212;49.734;8.490;2022-07-22T07:50:49;6.13;;;3.00;;
45466;SDS011;31212;49.734;8.490;2022-07-22T07:53:16;5.22;;;3.40;;
45466;SDS011;31212;49.734;8.490;2022-07-22T07:55:43;7.22;;;2.75;;
45466;SDS011;31212;49.734;8.490;2022-07-22T07:58:10;6.10;;;4.22;;
45466;SDS011;31212;49.734;8.490;2022-07-22T08:00:37;5.43;;;3.10;;
45466;SDS011;31212;49.734;8.490;2022-07-22T08:03:05;3.88;;;2.75;;
45466;SDS011;31212;49.734;8.490;2022-07-22T08:05:36;4.68;;;3.20;;
45466;SDS011;31212;49.734;8.490;2022-07-22T08:08:05;4.53;;;3.03;;
45466;SDS011;31212;49.734;8.490;2022-07-22T08:10:32;6.75;;;4.00;;
45466;SDS011;31212;49.734;8.490;2022-07-22T08:13:21;5.50;;;3.38;;
45466;SDS011;31212;49.734;8.490;2022-07-22T08:16:14;4.03;;;2.95;;
45466;SDS011;31212;49.734;8.490;2022-07-22T08:18:41;4.38;;;3.22;;
45466;SDS011;31212;49.734;8.490;2022-07-22T08:21:10;3.63;;;2.33;;
45466;SDS011;31212;49.734;8.490;2022-07-22T08:23:43;6.07;;;3.03;;
45466;SDS011;31212;49.734;8.490;2022-07-22T08:26:11;4.00;;;2.60;;
45466;SDS011;31212;49.734;8.490;2022-07-22T08:28:38;4.43;;;2.88;;
45466;SDS011;31212;49.734;8.490;2022-07-22T08:31:05;4.28;;;3.05;;
45466;SDS011;31212;49.734;8.490;2022-07-22T08:33:33;3.55;;;2.40;;
45466;SDS011;31212;49.734;8.490;2022-07-22T08:36:01;3.20;;;2.45;;
45466;SDS011;31212;49.734;8.490;2022-07-22T08:38:31;5.05;;;3.13;;
45466;SDS011;31212;49.734;8.490;2022-07-22T08:40:59;2.65;;;2.03;;
45466;SDS011;31212;49.734;8.490;2022-07-22T08:43:34;2.67;;;2.20;;
45466;SDS011;31212;49.734;8.490;2022-07-22T08:46:09;4.57;;;2.63;;
45466;SDS011;31212;49.734;8.490;2022-07-22T08:48:57;2.90;;;2.20;;
45466;SDS011;31212;49.734;8.490;2022-07-22T08:51:45;6.07;;;2.80;;
45466;SDS011;31212;49.734;8.490;2022-07-22T08:54:21;3.58;;;2.65;;
45466;SDS011;31212;49.734;8.490;2022-07-22T08:56:52;5.97;;;2.70;;
45466;SDS011;31212;49.734;8.490;2022-07-22T08:59:23;6.45;;;2.90;;
45466;SDS011;31212;49.734;8.490;2022-07-22T09:02:03;3.05;;;2.75;;
45466;SDS011;31212;49.734;8.490;2022-07-22T09:04:49;4.18;;;2.75;;
45466;SDS011;31212;49.734;8.490;2022-07-22T09:07:27;4.32;;;2.50;;
45466;SDS011;31212;49.734;8.490;2022-07-22T09:10:01;3.25;;;2.45;;
45466;SDS011;31212;49.734;8.490;2022-07-22T09:12:52;4.78;;;2.42;;
45466;SDS011;31212;49.734;8.490;2022-07-22T09:15:48;3.33;;;2.20;;
45466;SDS011;31212;49.734;8.490;2022-07-22T09:18:46;3.17;;;2.63;;
45466;SDS011;31212;49.734;8.490;2022-07-22T09:21:36;4.90;;;2.95;;
45466;SDS011;31212;49.734;8.490;2022-07-22T09:24:25;3.38;;;2.78;;
45466;SDS011;31212;49.734;8.490;2022-07-22T09:26:55;2.53;;;2.20;;
45466;SDS011;31212;49.734;8.490;2022-07-22T09:29:29;5.50;;;2.67;;
45466;SDS011;31212;49.734;8.490;2022-07-22T09:32:10;3.58;;;2.67;;
45466;SDS011;31212;49.734;8.490;2022-07-22T09:34:54;3.92;;;2.80;;
45466;SDS011;31212;49.734;8.490;2022-07-22T09:37:31;5.97;;;2.92;;
45466;SDS011;31212;49.734;8.490;2022-07-22T09:40:11;5.25;;;2.72;;
45466;SDS011;31212;49.734;8.490;2022-07-22T09:42:47;2.90;;;2.17;;
45466;SDS011;31212;49.734;8.490;2022-07-22T09:45:15;3.42;;;2.60;;
45466;SDS011;31212;49.734;8.490;2022-07-22T09:47:43;5.18;;;2.70;;
45466;SDS011;31212;49.734;8.490;2022-07-22T09:50:30;3.70;;;2.83;;
45466;SDS011;31212;49.734;8.490;2022-07-22T09:53:18;4.20;;;2.90;;
45466;SDS011;31212;49.734;8.490;2022-07-22T09:55:55;2.97;;;2.42;;
45466;SDS011;31212;49.734;8.490;2022-07-22T09:58:24;3.28;;;2.20;;
45466;SDS011;31212;49.734;8.490;2022-07-22T10:00:51;4.03;;;2.67;;
45466;SDS011;31212;49.734;8.490;2022-07-22T10:03:21;3.65;;;2.75;;
45466;SDS011;31212;49.734;8.490;2022-07-22T10:05:51;2.42;;;1.98;;
45466;SDS011;31212;49.734;8.490;2022-07-22T10:08:18;4.22;;;2.53;;
45466;SDS011;31212;49.734;8.490;2022-07-22T10:10:46;2.80;;;2.35;;
45466;SDS011;31212;49.734;8.490;2022-07-22T10:13:14;3.17;;;2.65;;
45466;SDS011;31212;49.734;8.490;2022-07-22T10:15:45;6.13;;;3.00;;
45466;SDS011;31212;49.734;8.490;2022-07-22T10:18:13;2.55;;;2.22;;
45466;SDS011;31212;49.734;8.490;2022-07-22T10:20:43;3.30;;;2.57;;
45466;SDS011;31212;49.734;8.490;2022-07-22T10:23:11;3.55;;;2.63;;
45466;SDS011;31212;49.734;8.490;2022-07-22T10:25:49;2.17;;;1.98;;
45466;SDS011;31212;49.734;8.490;2022-07-22T10:28:21;4.93;;;2.67;;
45466;SDS011;31212;49.734;8.490;2022-07-22T10:30:50;3.03;;;2.30;;
45466;SDS011;31212;49.734;8.490;2022-07-22T10:33:17;3.60;;;2.35;;
45466;SDS011;31212;49.734;8.490;2022-07-22T10:35:56;4.32;;;2.58;;
45466;SDS011;31212;49.734;8.490;2022-07-22T10:38:26;4.40;;;2.80;;
45466;SDS011;31212;49.734;8.490;2022-07-22T10:40:55;4.53;;;2.53;;
45466;SDS011;31212;49.734;8.490;2022-07-22T10:43:24;2.88;;;2.13;;
45466;SDS011;31212;49.734;8.490;2022-07-22T10:45:54;5.82;;;2.63;;
45466;SDS011;31212;49.734;8.490;2022-07-22T10:48:22;3.03;;;2.13;;
45466;SDS011;31212;49.734;8.490;2022-07-22T10:50:53;4.63;;;2.38;;
45466;SDS011;31212;49.734;8.490;2022-07-22T10:53:24;3.83;;;2.08;;
45466;SDS011;31212;49.734;8.490;2022-07-22T10:56:06;4.78;;;2.80;;
45466;SDS011;31212;49.734;8.490;2022-07-22T10:58:39;2.70;;;1.98;;
45466;SDS011;31212;49.734;8.490;2022-07-22T11:01:12;3.42;;;2.58;;
45466;SDS011;31212;49.734;8.490;2022-07-22T11:03:41;4.78;;;2.28;;
45466;SDS011;31212;49.734;8.490;2022-07-22T11:06:13;3.38;;;2.60;;
45466;SDS011;31212;49.734;8.490;2022-07-22T11:08:41;4.85;;;2.55;;
45466;SDS011;31212;49.734;8.490;2022-07-22T11:11:09;3.25;;;2.40;;
45466;SDS011;31212;49.734;8.490;2022-07-22T11:13:36;3.28;;;2.40;;
45466;SDS011;31212;49.734;8.490;2022-07-22T11:16:16;3.60;;;2.40;;
45466;SDS011;31212;49.734;8.490;2022-07-22T16:31:53;4.90;;;3.22;;
45466;SDS011;31212;49.734;8.490;2022-07-22T16:34:19;3.95;;;3.13;;
45466;SDS011;31212;49.734;8.490;2022-07-22T16:36:46;5.85;;;3.10;;
45466;SDS011;31212;49.734;8.490;2022-07-22T16:39:12;4.07;;;3.42;;
45466;SDS011;31212;49.734;8.490;2022-07-22T16:41:39;4.65;;;3.58;;
45466;SDS011;31212;49.734;8.490;2022-07-22T16:44:06;3.50;;;2.83;;
45466;SDS011;31212;49.734;8.490;2022-07-22T16:46:32;6.53;;;3.47;;
45466;SDS011;31212;49.734;8.490;2022-07-22T16:49:00;4.13;;;3.00;;
45466;SDS011;31212;49.734;8.490;2022-07-22T16:51:28;4.28;;;3.40;;
45466;SDS011;31212;49.734;8.490;2022-07-22T16:53:54;5.22;;;2.90;;
45466;SDS011;31212;49.734;8.490;2022-07-22T16:56:21;3.55;;;2.92;;
45466;SDS011;31212;49.734;8.490;2022-07-22T16:58:48;4.95;;;2.83;;
45466;SDS011;31212;49.734;8.490;2022-07-22T17:01:14;5.70;;;3.10;;
45466;SDS011;31212;49.734;8.490;2022-07-22T17:03:41;6.43;;;3.13;;
45466;SDS011;31212;49.734;8.490;2022-07-22T17:06:08;5.25;;;3.22;;
45466;SDS011;31212;49.734;8.490;2022-07-22T17:08:35;6.55;;;3.10;;
45466;SDS011;31212;49.734;8.490;2022-07-22T17:11:02;3.95;;;3.30;;
45466;SDS011;31212;49.734;8.490;2022-07-22T17:13:28;4.85;;;2.88;;
45466;SDS011;31212;49.734;8.490;2022-07-22T17:15:56;3.55;;;2.67;;
45466;SDS011;31212;49.734;8.490;2022-07-22T17:18:22;4.40;;;3.00;;
45466;SDS011;31212;49.734;8.490;2022-07-22T17:20:49;6.65;;;3.20;;
45466;SDS011;31212;49.734;8.490;2022-07-22T17:23:17;5.07;;;2.88;;
45466;SDS011;31212;49.734;8.490;2022-07-22T17:25:44;5.22;;;3.58;;
45466;SDS011;31212;49.734;8.490;2022-07-22T17:28:10;5.30;;;3.20;;
45466;SDS011;31212;49.734;8.490;2022-07-22T17:30:37;5.00;;;3.47;;
45466;SDS011;31212;49.734;8.490;2022-07-22T17:33:04;7.05;;;3.15;;
45466;SDS011;31212;49.734;8.490;2022-07-22T17:35:30;4.90;;;3.50;;
45466;SDS011;31212;49.734;8.490;2022-07-22T17:37:57;3.28;;;2.70;;
45466;SDS011;31212;49.734;8.490;2022-07-22T17:40:25;4.88;;;3.42;;
45466;SDS011;31212;49.734;8.490;2022-07-22T17:42:51;3.60;;;3.05;;
45466;SDS011;31212;49.734;8.490;2022-07-22T17:45:18;6.40;;;3.40;;
45466;SDS011;31212;49.734;8.490;2022-07-22T17:47:46;5.10;;;3.30;;
45466;SDS011;31212;49.734;8.490;2022-07-22T17:50:12;4.82;;;2.88;;
45466;SDS011;31212;49.734;8.490;2022-07-22T17:52:39;8.18;;;3.10;;
45466;SDS011;31212;49.734;8.490;2022-07-22T17:55:06;3.97;;;2.70;;
45466;SDS011;31212;49.734;8.490;2022-07-22T17:57:34;5.43;;;2.88;;
45466;SDS011;31212;49.734;8.490;2022-07-22T18:00:01;3.25;;;2.70;;
45466;SDS011;31212;49.734;8.490;2022-07-22T18:02:30;5.22;;;2.97;;
45466;SDS011;31212;49.734;8.490;2022-07-22T18:04:57;4.60;;;3.13;;
45466;SDS011;31212;49.734;8.490;2022-07-22T18:07:24;6.28;;;3.92;;
45466;SDS011;31212;49.734;8.490;2022-07-22T18:09:50;5.40;;;3.38;;
45466;SDS011;31212;49.734;8.490;2022-07-22T18:12:17;3.83;;;3.10;;
45466;SDS011;31212;49.734;8.490;2022-07-22T18:14:45;4.00;;;2.90;;
45466;SDS011;31212;49.734;8.490;2022-07-22T18:17:11;4.90;;;3.28;;
45466;SDS011;31212;49.734;8.490;2022-07-22T18:19:38;4.72;;;3.20;;
45466;SDS011;31212;49.734;8.490;2022-07-22T18:22:04;6.78;;;3.35;;
45466;SDS011;31212;49.734;8.490;2022-07-22T18:24:31;6.90;;;3.47;;
45466;SDS011;31212;49.734;8.490;2022-07-22T18:26:58;7.10;;;3.55;;
45466;SDS011;31212;49.734;8.490;2022-07-22T18:29:24;9.05;;;3.28;;
45466;SDS011;31212;49.734;8.490;2022-07-22T18:31:52;7.18;;;3.80;;
45466;SDS011;31212;49.734;8.490;2022-07-22T18:34:19;5.68;;;3.63;;
45466;SDS011;31212;49.734;8.490;2022-07-22T18:36:46;6.13;;;3.47;;
45466;SDS011;31212;49.734;8.490;2022-07-22T18:39:12;7.45;;;3.08;;
45466;SDS011;31212;49.734;8.490;2022-07-22T18:41:39;4.20;;;2.75;;
45466;SDS011;31212;49.734;8.490;2022-07-22T18:44:06;7.43;;;3.60;;
45466;SDS011;31212;49.734;8.490;2022-07-22T18:46:32;4.60;;;3.35;;
45466;SDS011;31212;49.734;8.490;2022-07-22T18:49:00;5.10;;;3.05;;
45466;SDS011;31212;49.734;8.490;2022-07-22T18:51:26;6.82;;;3.35;;
45466;SDS011;31212;49.734;8.490;2022-07-22T18:53:53;4.38;;;2.85;;
45466;SDS011;31212;49.734;8.490;2022-07-22T18:56:20;4.22;;;2.83;;
45466;SDS011;31212;49.734;8.490;2022-07-22T18:58:46;4.20;;;2.63;;
45466;SDS011;31212;49.734;8.490;2022-07-22T19:01:13;3.70;;;2.50;;
45466;SDS011;31212;49.734;8.490;2022-07-22T19:03:39;4.80;;;2.97;;
45466;SDS011;31212;49.734;8.490;2022-07-22T19:06:08;4.63;;;3.17;;
45466;SDS011;31212;49.734;8.490;2022-07-22T19:08:35;4.63;;;3.10;;
45466;SDS011;31212;49.734;8.490;2022-07-22T19:11:03;6.45;;;3.90;;
45466;SDS011;31212;49.734;8.490;2022-07-22T19:13:31;4.40;;;3.35;;
45466;SDS011;31212;49.734;8.490;2022-07-22T19:15:58;6.40;;;3.28;;
45466;SDS011;31212;49.734;8.490;2022-07-22T19:18:26;5.57;;;3.60;;
45466;SDS011;31212;49.734;8.490;2022-07-22T19:20:54;5.72;;;3.58;;
45466;SDS011;31212;49.734;8.490;2022-07-22T19:23:23;4.30;;;2.80;;
45466;SDS011;31212;49.734;8.490;2022-07-22T19:25:50;5.13;;;2.67;;
45466;SDS011;31212;49.734;8.490;2022-07-22T19:28:18;5.13;;;2.97;;
45466;SDS011;31212;49.734;8.490;2022-07-22T19:30:45;5.05;;;3.60;;
45466;SDS011;31212;49.734;8.490;2022-07-22T19:33:11;4.00;;;3.17;;
45466;SDS011;31212;49.734;8.490;2022-07-22T19:35:38;5.75;;;3.35;;
45466;SDS011;31212;49.734;8.490;2022-07-22T19:38:05;8.55;;;3.35;;
45466;SDS011;31212;49.734;8.490;2022-07-22T19:40:33;4.53;;;3.17;;
45466;SDS011;31212;49.734;8.490;2022-07-22T19:43:00;4.13;;;3.42;;
45466;SDS011;31212;49.734;8.490;2022-07-22T19:45:27;5.05;;;3.35;;
45466;SDS011;31212;49.734;8.490;2022-07-22T19:47:55;5.82;;;3.60;;
45466;SDS011;31212;49.734;8.490;2022-07-22T19:50:21;4.20;;;3.25;;
45466;SDS011;31212;49.734;8.490;2022-07-22T19:52:48;5.18;;;3.22;;
45466;SDS011;31212;49.734;8.490;2022-07-22T19:55:14;7.57;;;3.63;;
45466;SDS011;31212;49.734;8.490;2022-07-22T19:57:42;4.38;;;2.97;;
45466;SDS011;31212;49.734;8.490;2022-07-22T20:00:10;6.38;;;3.67;;
45466;SDS011;31212;49.734;8.490;2022-07-22T20:02:37;5.80;;;3.40;;
45466;SDS011;31212;49.734;8.490;2022-07-22T20:05:05;10.65;;;3.72;;
45466;SDS011;31212;49.734;8.490;2022-07-22T20:07:32;5.90;;;3.15;;
45466;SDS011;31212;49.734;8.490;2022-07-22T20:09:59;5.70;;;3.45;;
45466;SDS011;31212;49.734;8.490;2022-07-22T20:12:26;5.63;;;4.03;;
45466;SDS011;31212;49.734;8.490;2022-07-22T20:14:54;7.53;;;3.17;;